sensor_id;sensor_type;location;lat;lon;timestamp;P1;durP1;ratioP1;P2;durP2;ratioP2
76417;SDS011;65250;47.602;19.002;2023-08-31T00:02:02;5.05;;;3.15;;
76417;SDS011;65250;47.602;19.002;2023-08-31T00:04:30;4.23;;;3.30;;
76417;SDS011;65250;47.602;19.002;2023-08-31T00:06:57;4.65;;;3.50;;
76417;SDS011;65250;47.602;19.002;2023-08-31T00:09:24;5.07;;;3.13;;
76417;SDS011;65250;47.602;19.002;2023-08-31T00:11:51;4.80;;;3.38;;
76417;SDS011;65250;47.602;19.002;2023-08-31T00:14:18;4.35;;;3.20;;
76417;SDS011;65250;47.602;19.002;2023-08-31T00:16:45;7.03;;;2.80;;
76417;SDS011;65250;47.602;19.002;2023-08-31T00:19:14;4.35;;;3.03;;
76417;SDS011;65250;47.602;19.002;2023-08-31T00:21:41;5.40;;;3.33;;
76417;SDS011;65250;47.602;19.002;2023-08-31T00:24:09;4.97;;;3.50;;
76417;SDS011;65250;47.602;19.002;2023-08-31T00:26:36;4.53;;;3.13;;
76417;SDS011;65250;47.602;19.002;2023-08-31T00:29:09;5.23;;;3.57;;
76417;SDS011;65250;47.602;19.002;2023-08-31T00:31:37;4.90;;;3.30;;
76417;SDS011;65250;47.602;19.002;2023-08-31T00:34:04;4.18;;;3.42;;
76417;SDS011;65250;47.602;19.002;2023-08-31T00:36:31;7.07;;;3.25;;
76417;SDS011;65250;47.602;19.002;2023-08-31T00:38:58;4.30;;;3.42;;
76417;SDS011;65250;47.602;19.002;2023-08-31T00:41:25;5.47;;;3.67;;
76417;SDS011;65250;47.602;19.002;2023-08-31T00:43:52;4.40;;;3.50;;
76417;SDS011;65250;47.602;19.002;2023-08-31T00:46:19;5.13;;;3.33;;
76417;SDS011;65250;47.602;19.002;2023-08-31T00:48:46;5.65;;;3.47;;
76417;SDS011;65250;47.602;19.002;2023-08-31T00:51:13;7.07;;;3.70;;
76417;SDS011;65250;47.602;19.002;2023-08-31T00:53:40;5.10;;;3.50;;
76417;SDS011;65250;47.602;19.002;2023-08-31T00:56:07;5.53;;;3.78;;
76417;SDS011;65250;47.602;19.002;2023-08-31T00:58:34;5.07;;;3.97;;
76417;SDS011;65250;47.602;19.002;2023-08-31T01:01:10;4.63;;;3.38;;
76417;SDS011;65250;47.602;19.002;2023-08-31T01:08:54;6.03;;;3.80;;
76417;SDS011;65250;47.602;19.002;2023-08-31T01:11:37;5.82;;;3.95;;
76417;SDS011;65250;47.602;19.002;2023-08-31T01:14:13;5.60;;;3.75;;
76417;SDS011;65250;47.602;19.002;2023-08-31T01:16:43;3.72;;;3.20;;
76417;SDS011;65250;47.602;19.002;2023-08-31T01:19:25;3.87;;;3.10;;
76417;SDS011;65250;47.602;19.002;2023-08-31T01:21:57;6.60;;;3.95;;
76417;SDS011;65250;47.602;19.002;2023-08-31T01:24:27;3.78;;;3.35;;
76417;SDS011;65250;47.602;19.002;2023-08-31T01:26:54;5.45;;;3.90;;
76417;SDS011;65250;47.602;19.002;2023-08-31T01:29:21;4.60;;;2.97;;
76417;SDS011;65250;47.602;19.002;2023-08-31T01:31:48;5.00;;;3.43;;
76417;SDS011;65250;47.602;19.002;2023-08-31T01:34:15;5.20;;;3.60;;
76417;SDS011;65250;47.602;19.002;2023-08-31T01:36:43;5.00;;;3.83;;
76417;SDS011;65250;47.602;19.002;2023-08-31T01:39:15;5.35;;;3.20;;
76417;SDS011;65250;47.602;19.002;2023-08-31T01:41:51;6.60;;;3.85;;
76417;SDS011;65250;47.602;19.002;2023-08-31T01:44:22;4.00;;;3.10;;
76417;SDS011;65250;47.602;19.002;2023-08-31T01:46:51;6.25;;;3.20;;
76417;SDS011;65250;47.602;19.002;2023-08-31T01:49:20;4.68;;;3.03;;
76417;SDS011;65250;47.602;19.002;2023-08-31T01:51:50;4.78;;;3.05;;
76417;SDS011;65250;47.602;19.002;2023-08-31T01:54:17;3.70;;;2.95;;
76417;SDS011;65250;47.602;19.002;2023-08-31T01:56:43;6.37;;;2.93;;
76417;SDS011;65250;47.602;19.002;2023-08-31T01:59:10;3.47;;;2.80;;
76417;SDS011;65250;47.602;19.002;2023-08-31T02:01:37;4.90;;;3.25;;
76417;SDS011;65250;47.602;19.002;2023-08-31T02:04:04;5.88;;;2.70;;
76417;SDS011;65250;47.602;19.002;2023-08-31T02:06:31;4.43;;;3.20;;
76417;SDS011;65250;47.602;19.002;2023-08-31T02:08:58;4.27;;;2.83;;
76417;SDS011;65250;47.602;19.002;2023-08-31T02:11:25;3.47;;;2.55;;
76417;SDS011;65250;47.602;19.002;2023-08-31T02:13:52;3.97;;;2.72;;
76417;SDS011;65250;47.602;19.002;2023-08-31T02:16:19;3.95;;;2.80;;
76417;SDS011;65250;47.602;19.002;2023-08-31T02:18:45;5.55;;;3.00;;
76417;SDS011;65250;47.602;19.002;2023-08-31T02:21:12;4.07;;;3.07;;
76417;SDS011;65250;47.602;19.002;2023-08-31T02:23:39;6.82;;;3.25;;
76417;SDS011;65250;47.602;19.002;2023-08-31T02:26:06;4.20;;;2.97;;
76417;SDS011;65250;47.602;19.002;2023-08-31T02:28:32;4.05;;;2.88;;
76417;SDS011;65250;47.602;19.002;2023-08-31T02:31:00;4.25;;;3.00;;
76417;SDS011;65250;47.602;19.002;2023-08-31T02:33:28;4.33;;;3.40;;
76417;SDS011;65250;47.602;19.002;2023-08-31T02:35:55;3.67;;;3.17;;
76417;SDS011;65250;47.602;19.002;2023-08-31T02:38:22;4.28;;;3.33;;
76417;SDS011;65250;47.602;19.002;2023-08-31T02:40:49;5.00;;;3.03;;
76417;SDS011;65250;47.602;19.002;2023-08-31T02:43:16;4.00;;;2.67;;
76417;SDS011;65250;47.602;19.002;2023-08-31T02:45:43;3.53;;;2.80;;
76417;SDS011;65250;47.602;19.002;2023-08-31T02:48:10;4.72;;;3.25;;
76417;SDS011;65250;47.602;19.002;2023-08-31T02:50:38;5.18;;;3.40;;
76417;SDS011;65250;47.602;19.002;2023-08-31T02:53:05;4.95;;;2.95;;
76417;SDS011;65250;47.602;19.002;2023-08-31T02:55:32;4.40;;;2.83;;
76417;SDS011;65250;47.602;19.002;2023-08-31T02:57:59;4.53;;;3.17;;
76417;SDS011;65250;47.602;19.002;2023-08-31T03:00:26;3.78;;;3.10;;
76417;SDS011;65250;47.602;19.002;2023-08-31T03:02:53;4.40;;;3.05;;
76417;SDS011;65250;47.602;19.002;2023-08-31T03:05:20;3.80;;;3.20;;
76417;SDS011;65250;47.602;19.002;2023-08-31T03:07:49;3.80;;;3.00;;
76417;SDS011;65250;47.602;19.002;2023-08-31T03:10:16;3.70;;;2.57;;
76417;SDS011;65250;47.602;19.002;2023-08-31T03:12:43;9.70;;;3.38;;
76417;SDS011;65250;47.602;19.002;2023-08-31T03:15:10;4.07;;;3.10;;
76417;SDS011;65250;47.602;19.002;2023-08-31T03:17:37;4.18;;;3.33;;
76417;SDS011;65250;47.602;19.002;2023-08-31T03:20:04;3.97;;;3.22;;
76417;SDS011;65250;47.602;19.002;2023-08-31T03:22:33;5.60;;;3.23;;
76417;SDS011;65250;47.602;19.002;2023-08-31T03:25:00;6.75;;;3.45;;
76417;SDS011;65250;47.602;19.002;2023-08-31T03:27:26;4.15;;;3.47;;
76417;SDS011;65250;47.602;19.002;2023-08-31T03:29:53;3.97;;;3.10;;
76417;SDS011;65250;47.602;19.002;2023-08-31T03:32:20;4.93;;;3.40;;
76417;SDS011;65250;47.602;19.002;2023-08-31T03:34:47;5.40;;;3.53;;
76417;SDS011;65250;47.602;19.002;2023-08-31T03:37:14;4.32;;;3.67;;
76417;SDS011;65250;47.602;19.002;2023-08-31T03:39:41;3.95;;;3.20;;
76417;SDS011;65250;47.602;19.002;2023-08-31T03:42:08;3.25;;;2.72;;
76417;SDS011;65250;47.602;19.002;2023-08-31T03:44:35;4.38;;;3.45;;
76417;SDS011;65250;47.602;19.002;2023-08-31T03:47:04;4.93;;;3.73;;
76417;SDS011;65250;47.602;19.002;2023-08-31T03:49:31;4.50;;;3.47;;
76417;SDS011;65250;47.602;19.002;2023-08-31T03:51:58;4.43;;;3.42;;
76417;SDS011;65250;47.602;19.002;2023-08-31T03:54:25;4.07;;;3.03;;
76417;SDS011;65250;47.602;19.002;2023-08-31T03:56:52;5.13;;;3.00;;
76417;SDS011;65250;47.602;19.002;2023-08-31T03:59:19;4.77;;;3.70;;
76417;SDS011;65250;47.602;19.002;2023-08-31T04:01:46;5.82;;;3.50;;
76417;SDS011;65250;47.602;19.002;2023-08-31T04:04:13;5.07;;;3.55;;
76417;SDS011;65250;47.602;19.002;2023-08-31T04:06:40;5.43;;;3.40;;
76417;SDS011;65250;47.602;19.002;2023-08-31T04:09:07;4.90;;;3.67;;
76417;SDS011;65250;47.602;19.002;2023-08-31T04:11:34;5.27;;;3.70;;
76417;SDS011;65250;47.602;19.002;2023-08-31T04:14:01;6.25;;;3.78;;
76417;SDS011;65250;47.602;19.002;2023-08-31T04:16:27;6.35;;;3.90;;
76417;SDS011;65250;47.602;19.002;2023-08-31T04:18:55;4.15;;;2.95;;
76417;SDS011;65250;47.602;19.002;2023-08-31T04:21:21;4.85;;;3.28;;
76417;SDS011;65250;47.602;19.002;2023-08-31T04:23:48;5.23;;;3.33;;
76417;SDS011;65250;47.602;19.002;2023-08-31T04:26:15;4.13;;;3.25;;
76417;SDS011;65250;47.602;19.002;2023-08-31T04:28:44;4.65;;;3.17;;
76417;SDS011;65250;47.602;19.002;2023-08-31T04:31:11;3.72;;;3.33;;
76417;SDS011;65250;47.602;19.002;2023-08-31T04:33:38;3.85;;;3.28;;
76417;SDS011;65250;47.602;19.002;2023-08-31T04:36:05;4.67;;;3.50;;
76417;SDS011;65250;47.602;19.002;2023-08-31T04:38:34;4.43;;;3.13;;
76417;SDS011;65250;47.602;19.002;2023-08-31T04:41:01;4.60;;;3.33;;
76417;SDS011;65250;47.602;19.002;2023-08-31T04:43:28;4.75;;;3.10;;
76417;SDS011;65250;47.602;19.002;2023-08-31T04:45:55;4.28;;;3.00;;
76417;SDS011;65250;47.602;19.002;2023-08-31T04:48:22;4.67;;;3.33;;
76417;SDS011;65250;47.602;19.002;2023-08-31T04:50:49;6.50;;;2.80;;
76417;SDS011;65250;47.602;19.002;2023-08-31T04:53:15;4.28;;;2.75;;
76417;SDS011;65250;47.602;19.002;2023-08-31T04:55:42;3.42;;;2.45;;
76417;SDS011;65250;47.602;19.002;2023-08-31T04:58:09;3.63;;;2.47;;
76417;SDS011;65250;47.602;19.002;2023-08-31T05:00:36;3.53;;;2.63;;
76417;SDS011;65250;47.602;19.002;2023-08-31T05:03:03;3.08;;;2.42;;
76417;SDS011;65250;47.602;19.002;2023-08-31T05:05:30;3.38;;;2.88;;
76417;SDS011;65250;47.602;19.002;2023-08-31T05:07:59;4.63;;;3.30;;
76417;SDS011;65250;47.602;19.002;2023-08-31T05:10:26;4.05;;;2.70;;
76417;SDS011;65250;47.602;19.002;2023-08-31T05:12:53;3.87;;;3.00;;
76417;SDS011;65250;47.602;19.002;2023-08-31T05:15:20;5.28;;;2.55;;
76417;SDS011;65250;47.602;19.002;2023-08-31T05:17:46;4.68;;;3.00;;
76417;SDS011;65250;47.602;19.002;2023-08-31T05:20:15;3.55;;;2.80;;
76417;SDS011;65250;47.602;19.002;2023-08-31T05:22:41;4.45;;;2.78;;
76417;SDS011;65250;47.602;19.002;2023-08-31T05:25:08;3.70;;;2.80;;
76417;SDS011;65250;47.602;19.002;2023-08-31T05:27:35;3.25;;;2.60;;
76417;SDS011;65250;47.602;19.002;2023-08-31T05:30:02;2.80;;;2.30;;
76417;SDS011;65250;47.602;19.002;2023-08-31T05:32:29;5.75;;;2.72;;
76417;SDS011;65250;47.602;19.002;2023-08-31T05:34:56;3.35;;;2.70;;
76417;SDS011;65250;47.602;19.002;2023-08-31T05:37:24;3.57;;;2.50;;
76417;SDS011;65250;47.602;19.002;2023-08-31T05:39:51;3.38;;;2.78;;
76417;SDS011;65250;47.602;19.002;2023-08-31T05:42:18;3.38;;;3.08;;
76417;SDS011;65250;47.602;19.002;2023-08-31T05:44:45;4.47;;;3.03;;
76417;SDS011;65250;47.602;19.002;2023-08-31T05:47:12;4.78;;;2.95;;
76417;SDS011;65250;47.602;19.002;2023-08-31T05:49:39;6.73;;;2.93;;
76417;SDS011;65250;47.602;19.002;2023-08-31T05:52:06;2.80;;;2.35;;
76417;SDS011;65250;47.602;19.002;2023-08-31T05:54:32;2.95;;;2.65;;
76417;SDS011;65250;47.602;19.002;2023-08-31T05:56:59;7.72;;;2.90;;
76417;SDS011;65250;47.602;19.002;2023-08-31T05:59:26;3.30;;;2.80;;
76417;SDS011;65250;47.602;19.002;2023-08-31T06:01:53;3.50;;;3.20;;
76417;SDS011;65250;47.602;19.002;2023-08-31T06:04:21;4.40;;;3.03;;
76417;SDS011;65250;47.602;19.002;2023-08-31T06:06:48;4.78;;;3.20;;
76417;SDS011;65250;47.602;19.002;2023-08-31T06:09:18;3.58;;;2.75;;
76417;SDS011;65250;47.602;19.002;2023-08-31T06:11:45;5.78;;;3.15;;
76417;SDS011;65250;47.602;19.002;2023-08-31T06:14:12;7.20;;;3.07;;
76417;SDS011;65250;47.602;19.002;2023-08-31T06:16:38;5.25;;;2.78;;
76417;SDS011;65250;47.602;19.002;2023-08-31T06:19:05;3.72;;;3.30;;
76417;SDS011;65250;47.602;19.002;2023-08-31T06:21:32;3.83;;;2.45;;
76417;SDS011;65250;47.602;19.002;2023-08-31T06:23:59;2.75;;;1.92;;
76417;SDS011;65250;47.602;19.002;2023-08-31T06:26:26;3.80;;;2.00;;
76417;SDS011;65250;47.602;19.002;2023-08-31T06:28:53;4.55;;;2.20;;
76417;SDS011;65250;47.602;19.002;2023-08-31T06:31:19;2.35;;;1.92;;
76417;SDS011;65250;47.602;19.002;2023-08-31T06:33:46;4.05;;;2.25;;
76417;SDS011;65250;47.602;19.002;2023-08-31T06:36:13;5.00;;;2.20;;
76417;SDS011;65250;47.602;19.002;2023-08-31T06:38:40;4.27;;;2.40;;
76417;SDS011;65250;47.602;19.002;2023-08-31T06:41:07;4.70;;;2.40;;
76417;SDS011;65250;47.602;19.002;2023-08-31T06:43:35;12.43;;;3.15;;
76417;SDS011;65250;47.602;19.002;2023-08-31T06:46:02;4.60;;;2.40;;
76417;SDS011;65250;47.602;19.002;2023-08-31T06:48:48;3.38;;;2.20;;
76417;SDS011;65250;47.602;19.002;2023-08-31T06:51:15;8.27;;;2.30;;
76417;SDS011;65250;47.602;19.002;2023-08-31T06:53:42;9.02;;;2.97;;
76417;SDS011;65250;47.602;19.002;2023-08-31T06:56:10;6.43;;;2.38;;
76417;SDS011;65250;47.602;19.002;2023-08-31T06:58:36;2.40;;;2.10;;
76417;SDS011;65250;47.602;19.002;2023-08-31T07:01:06;2.83;;;2.20;;
76417;SDS011;65250;47.602;19.002;2023-08-31T07:03:33;3.23;;;2.40;;
76417;SDS011;65250;47.602;19.002;2023-08-31T07:06:00;9.27;;;2.53;;
76417;SDS011;65250;47.602;19.002;2023-08-31T07:08:27;5.47;;;3.05;;
76417;SDS011;65250;47.602;19.002;2023-08-31T07:10:54;4.35;;;2.10;;
76417;SDS011;65250;47.602;19.002;2023-08-31T07:13:21;6.05;;;2.60;;
76417;SDS011;65250;47.602;19.002;2023-08-31T07:15:48;4.13;;;2.23;;
76417;SDS011;65250;47.602;19.002;2023-08-31T07:18:16;2.75;;;2.20;;
76417;SDS011;65250;47.602;19.002;2023-08-31T07:20:45;5.85;;;2.90;;
76417;SDS011;65250;47.602;19.002;2023-08-31T07:23:12;2.83;;;2.20;;
76417;SDS011;65250;47.602;19.002;2023-08-31T07:25:39;2.50;;;2.30;;
76417;SDS011;65250;47.602;19.002;2023-08-31T07:28:06;3.50;;;2.13;;
76417;SDS011;65250;47.602;19.002;2023-08-31T07:30:33;4.78;;;2.20;;
76417;SDS011;65250;47.602;19.002;2023-08-31T07:33:00;8.68;;;2.50;;
76417;SDS011;65250;47.602;19.002;2023-08-31T07:35:49;3.17;;;2.30;;
76417;SDS011;65250;47.602;19.002;2023-08-31T07:38:16;5.53;;;2.17;;
76417;SDS011;65250;47.602;19.002;2023-08-31T07:40:43;3.87;;;2.20;;
76417;SDS011;65250;47.602;19.002;2023-08-31T07:43:10;3.67;;;2.47;;
76417;SDS011;65250;47.602;19.002;2023-08-31T07:45:38;3.45;;;1.98;;
76417;SDS011;65250;47.602;19.002;2023-08-31T07:48:05;3.95;;;2.28;;
76417;SDS011;65250;47.602;19.002;2023-08-31T07:50:33;4.55;;;2.20;;
76417;SDS011;65250;47.602;19.002;2023-08-31T07:53:00;3.03;;;1.80;;
76417;SDS011;65250;47.602;19.002;2023-08-31T07:55:27;2.97;;;2.08;;
76417;SDS011;65250;47.602;19.002;2023-08-31T07:57:54;3.63;;;2.10;;
76417;SDS011;65250;47.602;19.002;2023-08-31T08:00:21;3.50;;;2.40;;
76417;SDS011;65250;47.602;19.002;2023-08-31T08:02:49;3.88;;;2.38;;
76417;SDS011;65250;47.602;19.002;2023-08-31T08:05:16;7.77;;;2.20;;
76417;SDS011;65250;47.602;19.002;2023-08-31T08:07:45;3.40;;;2.20;;
76417;SDS011;65250;47.602;19.002;2023-08-31T08:10:12;2.70;;;2.47;;
76417;SDS011;65250;47.602;19.002;2023-08-31T08:12:41;4.50;;;2.50;;
76417;SDS011;65250;47.602;19.002;2023-08-31T08:15:13;3.67;;;2.20;;
76417;SDS011;65250;47.602;19.002;2023-08-31T08:17:40;5.23;;;2.80;;
76417;SDS011;65250;47.602;19.002;2023-08-31T08:20:07;4.30;;;2.40;;
76417;SDS011;65250;47.602;19.002;2023-08-31T08:22:34;4.53;;;2.30;;
76417;SDS011;65250;47.602;19.002;2023-08-31T08:25:02;3.78;;;2.42;;
76417;SDS011;65250;47.602;19.002;2023-08-31T08:27:29;5.50;;;2.40;;
76417;SDS011;65250;47.602;19.002;2023-08-31T08:29:58;3.93;;;2.63;;
76417;SDS011;65250;47.602;19.002;2023-08-31T08:32:25;4.32;;;3.05;;
76417;SDS011;65250;47.602;19.002;2023-08-31T08:34:52;3.95;;;2.58;;
76417;SDS011;65250;47.602;19.002;2023-08-31T08:37:19;4.43;;;2.78;;
76417;SDS011;65250;47.602;19.002;2023-08-31T08:39:49;4.07;;;2.67;;
76417;SDS011;65250;47.602;19.002;2023-08-31T08:42:19;2.67;;;2.40;;
76417;SDS011;65250;47.602;19.002;2023-08-31T08:44:48;2.75;;;2.55;;
76417;SDS011;65250;47.602;19.002;2023-08-31T08:47:17;3.90;;;3.10;;
76417;SDS011;65250;47.602;19.002;2023-08-31T08:49:44;4.63;;;2.90;;
76417;SDS011;65250;47.602;19.002;2023-08-31T08:52:11;3.53;;;2.63;;
76417;SDS011;65250;47.602;19.002;2023-08-31T08:54:39;3.77;;;2.40;;
76417;SDS011;65250;47.602;19.002;2023-08-31T08:57:06;2.90;;;2.60;;
76417;SDS011;65250;47.602;19.002;2023-08-31T08:59:33;4.22;;;2.40;;
76417;SDS011;65250;47.602;19.002;2023-08-31T09:02:00;2.50;;;2.30;;
76417;SDS011;65250;47.602;19.002;2023-08-31T09:04:28;3.78;;;2.70;;
76417;SDS011;65250;47.602;19.002;2023-08-31T09:06:57;3.13;;;2.20;;
76417;SDS011;65250;47.602;19.002;2023-08-31T09:09:23;5.63;;;2.50;;
76417;SDS011;65250;47.602;19.002;2023-08-31T09:11:50;6.93;;;2.67;;
76417;SDS011;65250;47.602;19.002;2023-08-31T09:14:18;3.53;;;2.15;;
76417;SDS011;65250;47.602;19.002;2023-08-31T09:16:46;4.95;;;2.38;;
76417;SDS011;65250;47.602;19.002;2023-08-31T09:19:24;5.07;;;2.43;;
76417;SDS011;65250;47.602;19.002;2023-08-31T09:21:55;2.63;;;2.42;;
76417;SDS011;65250;47.602;19.002;2023-08-31T09:24:22;3.00;;;2.28;;
76417;SDS011;65250;47.602;19.002;2023-08-31T09:26:53;2.50;;;2.22;;
76417;SDS011;65250;47.602;19.002;2023-08-31T09:29:22;2.97;;;2.10;;
76417;SDS011;65250;47.602;19.002;2023-08-31T09:31:48;4.03;;;1.97;;
76417;SDS011;65250;47.602;19.002;2023-08-31T09:34:16;5.43;;;2.10;;
76417;SDS011;65250;47.602;19.002;2023-08-31T09:36:43;2.15;;;2.05;;
76417;SDS011;65250;47.602;19.002;2023-08-31T09:39:12;3.60;;;2.22;;
76417;SDS011;65250;47.602;19.002;2023-08-31T09:41:53;3.17;;;2.00;;
76417;SDS011;65250;47.602;19.002;2023-08-31T09:44:21;4.67;;;2.30;;
76417;SDS011;65250;47.602;19.002;2023-08-31T09:46:48;2.58;;;2.33;;
76417;SDS011;65250;47.602;19.002;2023-08-31T09:49:16;2.45;;;2.25;;
76417;SDS011;65250;47.602;19.002;2023-08-31T09:51:44;3.17;;;2.35;;
76417;SDS011;65250;47.602;19.002;2023-08-31T09:54:16;4.20;;;2.40;;
76417;SDS011;65250;47.602;19.002;2023-08-31T09:56:45;3.23;;;2.37;;
76417;SDS011;65250;47.602;19.002;2023-08-31T09:59:13;3.17;;;2.20;;
76417;SDS011;65250;47.602;19.002;2023-08-31T10:01:44;3.55;;;2.65;;
76417;SDS011;65250;47.602;19.002;2023-08-31T10:04:12;3.17;;;2.80;;
76417;SDS011;65250;47.602;19.002;2023-08-31T10:06:39;3.38;;;2.53;;
76417;SDS011;65250;47.602;19.002;2023-08-31T10:09:07;3.20;;;2.47;;
76417;SDS011;65250;47.602;19.002;2023-08-31T10:11:38;7.80;;;2.78;;
76417;SDS011;65250;47.602;19.002;2023-08-31T10:14:06;2.78;;;2.58;;
76417;SDS011;65250;47.602;19.002;2023-08-31T10:16:34;2.92;;;2.17;;
76417;SDS011;65250;47.602;19.002;2023-08-31T10:19:01;3.58;;;2.67;;
76417;SDS011;65250;47.602;19.002;2023-08-31T10:21:30;2.77;;;2.53;;
76417;SDS011;65250;47.602;19.002;2023-08-31T10:23:57;6.22;;;2.70;;
76417;SDS011;65250;47.602;19.002;2023-08-31T10:26:31;2.78;;;2.58;;
76417;SDS011;65250;47.602;19.002;2023-08-31T10:28:58;2.47;;;2.25;;
76417;SDS011;65250;47.602;19.002;2023-08-31T10:31:29;2.80;;;2.30;;
76417;SDS011;65250;47.602;19.002;2023-08-31T10:33:58;9.93;;;2.67;;
76417;SDS011;65250;47.602;19.002;2023-08-31T10:36:45;5.13;;;2.25;;
76417;SDS011;65250;47.602;19.002;2023-08-31T10:39:20;3.95;;;2.28;;
76417;SDS011;65250;47.602;19.002;2023-08-31T10:41:56;4.35;;;2.08;;
76417;SDS011;65250;47.602;19.002;2023-08-31T10:44:24;5.32;;;2.30;;
76417;SDS011;65250;47.602;19.002;2023-08-31T10:46:52;2.67;;;2.00;;
76417;SDS011;65250;47.602;19.002;2023-08-31T10:49:23;11.60;;;2.85;;
76417;SDS011;65250;47.602;19.002;2023-08-31T10:51:56;3.22;;;2.20;;
76417;SDS011;65250;47.602;19.002;2023-08-31T10:54:30;4.80;;;2.53;;
76417;SDS011;65250;47.602;19.002;2023-08-31T10:57:04;4.97;;;2.20;;
76417;SDS011;65250;47.602;19.002;2023-08-31T10:59:45;3.60;;;2.07;;
76417;SDS011;65250;47.602;19.002;2023-08-31T11:05:07;4.55;;;2.17;;
76417;SDS011;65250;47.602;19.002;2023-08-31T11:07:48;2.58;;;2.03;;
76417;SDS011;65250;47.602;19.002;2023-08-31T11:10:17;3.63;;;2.40;;
76417;SDS011;65250;47.602;19.002;2023-08-31T11:12:48;4.03;;;2.20;;
76417;SDS011;65250;47.602;19.002;2023-08-31T11:15:20;3.35;;;2.17;;
76417;SDS011;65250;47.602;19.002;2023-08-31T11:17:52;3.90;;;2.40;;
76417;SDS011;65250;47.602;19.002;2023-08-31T11:20:20;3.70;;;2.50;;
76417;SDS011;65250;47.602;19.002;2023-08-31T11:22:50;2.83;;;2.55;;
76417;SDS011;65250;47.602;19.002;2023-08-31T11:25:17;4.97;;;2.77;;
76417;SDS011;65250;47.602;19.002;2023-08-31T11:27:54;4.75;;;2.28;;
76417;SDS011;65250;47.602;19.002;2023-08-31T11:30:21;2.50;;;2.30;;
76417;SDS011;65250;47.602;19.002;2023-08-31T11:32:50;2.35;;;2.20;;
76417;SDS011;65250;47.602;19.002;2023-08-31T11:35:18;4.68;;;2.92;;
76417;SDS011;65250;47.602;19.002;2023-08-31T11:37:49;2.70;;;2.50;;
76417;SDS011;65250;47.602;19.002;2023-08-31T11:40:17;2.85;;;2.53;;
76417;SDS011;65250;47.602;19.002;2023-08-31T11:42:44;2.85;;;2.30;;
76417;SDS011;65250;47.602;19.002;2023-08-31T11:45:11;2.83;;;2.63;;
76417;SDS011;65250;47.602;19.002;2023-08-31T11:47:47;3.30;;;3.00;;
76417;SDS011;65250;47.602;19.002;2023-08-31T11:50:14;2.90;;;2.63;;
76417;SDS011;65250;47.602;19.002;2023-08-31T11:52:42;4.50;;;2.83;;
76417;SDS011;65250;47.602;19.002;2023-08-31T11:55:10;4.00;;;3.65;;
76417;SDS011;65250;47.602;19.002;2023-08-31T11:57:38;4.78;;;3.50;;
76417;SDS011;65250;47.602;19.002;2023-08-31T12:00:05;3.78;;;3.53;;
76417;SDS011;65250;47.602;19.002;2023-08-31T12:02:35;4.40;;;4.00;;
76417;SDS011;65250;47.602;19.002;2023-08-31T12:05:02;3.83;;;3.53;;
76417;SDS011;65250;47.602;19.002;2023-08-31T12:07:32;4.00;;;3.67;;
76417;SDS011;65250;47.602;19.002;2023-08-31T12:10:06;4.22;;;3.80;;
76417;SDS011;65250;47.602;19.002;2023-08-31T12:12:34;4.40;;;4.20;;
76417;SDS011;65250;47.602;19.002;2023-08-31T12:15:01;4.10;;;3.80;;
76417;SDS011;65250;47.602;19.002;2023-08-31T12:17:30;3.80;;;3.47;;
76417;SDS011;65250;47.602;19.002;2023-08-31T12:20:03;4.15;;;3.85;;
76417;SDS011;65250;47.602;19.002;2023-08-31T12:22:31;4.70;;;4.30;;
76417;SDS011;65250;47.602;19.002;2023-08-31T12:24:58;4.43;;;4.15;;
76417;SDS011;65250;47.602;19.002;2023-08-31T12:27:25;4.73;;;4.43;;
76417;SDS011;65250;47.602;19.002;2023-08-31T12:29:53;4.82;;;4.50;;
76417;SDS011;65250;47.602;19.002;2023-08-31T12:32:20;5.45;;;5.15;;
76417;SDS011;65250;47.602;19.002;2023-08-31T12:34:47;4.95;;;4.65;;
76417;SDS011;65250;47.602;19.002;2023-08-31T12:37:14;5.15;;;4.70;;
76417;SDS011;65250;47.602;19.002;2023-08-31T12:39:42;5.00;;;4.70;;
76417;SDS011;65250;47.602;19.002;2023-08-31T12:42:12;4.72;;;4.50;;
76417;SDS011;65250;47.602;19.002;2023-08-31T12:44:49;5.03;;;4.82;;
76417;SDS011;65250;47.602;19.002;2023-08-31T12:47:16;5.25;;;4.97;;
76417;SDS011;65250;47.602;19.002;2023-08-31T12:49:43;5.32;;;5.03;;
76417;SDS011;65250;47.602;19.002;2023-08-31T12:52:09;4.47;;;4.23;;
76417;SDS011;65250;47.602;19.002;2023-08-31T12:54:36;5.07;;;4.88;;
76417;SDS011;65250;47.602;19.002;2023-08-31T12:57:03;4.88;;;4.57;;
76417;SDS011;65250;47.602;19.002;2023-08-31T12:59:31;4.70;;;4.50;;
76417;SDS011;65250;47.602;19.002;2023-08-31T13:01:58;5.22;;;4.78;;
76417;SDS011;65250;47.602;19.002;2023-08-31T13:04:26;4.83;;;4.63;;
76417;SDS011;65250;47.602;19.002;2023-08-31T13:06:54;4.13;;;3.92;;
76417;SDS011;65250;47.602;19.002;2023-08-31T13:09:21;4.07;;;3.88;;
76417;SDS011;65250;47.602;19.002;2023-08-31T13:11:47;3.75;;;3.50;;
76417;SDS011;65250;47.602;19.002;2023-08-31T13:14:14;4.82;;;4.43;;
76417;SDS011;65250;47.602;19.002;2023-08-31T13:16:41;3.50;;;3.30;;
76417;SDS011;65250;47.602;19.002;2023-08-31T13:19:08;3.92;;;3.72;;
76417;SDS011;65250;47.602;19.002;2023-08-31T13:21:35;3.90;;;3.58;;
76417;SDS011;65250;47.602;19.002;2023-08-31T13:24:02;3.42;;;3.13;;
76417;SDS011;65250;47.602;19.002;2023-08-31T13:26:28;3.40;;;3.20;;
76417;SDS011;65250;47.602;19.002;2023-08-31T13:28:55;4.23;;;3.90;;
76417;SDS011;65250;47.602;19.002;2023-08-31T13:31:22;3.75;;;3.50;;
76417;SDS011;65250;47.602;19.002;2023-08-31T13:33:49;4.47;;;4.05;;
76417;SDS011;65250;47.602;19.002;2023-08-31T13:36:16;4.72;;;4.45;;
76417;SDS011;65250;47.602;19.002;2023-08-31T13:38:43;3.45;;;3.35;;
76417;SDS011;65250;47.602;19.002;2023-08-31T13:41:09;3.63;;;3.43;;
76417;SDS011;65250;47.602;19.002;2023-08-31T13:43:36;3.30;;;3.10;;
76417;SDS011;65250;47.602;19.002;2023-08-31T13:46:03;4.13;;;3.83;;
76417;SDS011;65250;47.602;19.002;2023-08-31T13:48:31;3.20;;;3.00;;
76417;SDS011;65250;47.602;19.002;2023-08-31T13:50:59;4.05;;;3.85;;
76417;SDS011;65250;47.602;19.002;2023-08-31T13:53:26;4.60;;;4.30;;
76417;SDS011;65250;47.602;19.002;2023-08-31T13:55:53;6.93;;;4.43;;
76417;SDS011;65250;47.602;19.002;2023-08-31T13:58:19;4.88;;;4.57;;
76417;SDS011;65250;47.602;19.002;2023-08-31T14:00:46;3.80;;;3.60;;
76417;SDS011;65250;47.602;19.002;2023-08-31T14:03:13;3.88;;;3.58;;
76417;SDS011;65250;47.602;19.002;2023-08-31T14:05:40;3.70;;;3.43;;
76417;SDS011;65250;47.602;19.002;2023-08-31T14:08:07;3.97;;;3.78;;
76417;SDS011;65250;47.602;19.002;2023-08-31T14:10:38;3.83;;;3.53;;
76417;SDS011;65250;47.602;19.002;2023-08-31T14:13:06;4.18;;;3.97;;
76417;SDS011;65250;47.602;19.002;2023-08-31T14:15:33;4.30;;;4.10;;
76417;SDS011;65250;47.602;19.002;2023-08-31T14:18:00;4.20;;;3.90;;
76417;SDS011;65250;47.602;19.002;2023-08-31T14:20:27;6.20;;;4.15;;
76417;SDS011;65250;47.602;19.002;2023-08-31T14:22:53;3.60;;;3.30;;
76417;SDS011;65250;47.602;19.002;2023-08-31T14:25:20;3.72;;;3.42;;
76417;SDS011;65250;47.602;19.002;2023-08-31T14:27:50;2.95;;;2.75;;
76417;SDS011;65250;47.602;19.002;2023-08-31T14:30:17;4.10;;;3.80;;
76417;SDS011;65250;47.602;19.002;2023-08-31T14:32:44;3.22;;;3.03;;
76417;SDS011;65250;47.602;19.002;2023-08-31T14:35:11;3.58;;;3.38;;
76417;SDS011;65250;47.602;19.002;2023-08-31T14:37:38;3.83;;;3.35;;
76417;SDS011;65250;47.602;19.002;2023-08-31T14:40:05;3.40;;;3.20;;
76417;SDS011;65250;47.602;19.002;2023-08-31T14:42:33;4.00;;;3.80;;
76417;SDS011;65250;47.602;19.002;2023-08-31T14:45:01;3.60;;;3.40;;
76417;SDS011;65250;47.602;19.002;2023-08-31T14:47:28;4.07;;;3.80;;